Latest Weather Observations for Newdegate

IDW60801

Issued at 10:02 pm WST Thursday 29 January 2015 (issued every 30 minutes, with the page automatically refreshed every 10 minutes)

About weather observations | Map of weather stations | Latest weather observations for WA | Other Formats
Station Details ID: 010692 Name: NEWDEGATE RESEARCH STATION Lat: -33.11 Lon: 118.84 Height: 320.0 m
Data from the previous 72 hours. | See also: Recent months at Newdegate
Date/Time
WST
Temp
°C
App
Temp
°C
Dew
Point
Rel
Hum
%
Delta-T
°C
Wind Press
QNH
hPa
Press
MSL
hPa
Rain
since 9 am
mm
Dir
 
Spd
km/h
Gust
km/h
Spd
kts
Gust
kts
29/10:00pm 26.5 21.0 1.7 20 12.1 E 20 26 11 14 1012.8 1011.3 0.0
29/09:30pm 26.8 21.5 2.0 20 12.2 ESE 19 26 10 14 1012.8 1011.3 0.0
29/09:00pm 27.2 22.0 2.3 20 12.3 ESE 19 26 10 14 1012.5 1011.0 0.0
29/08:30pm 27.4 22.2 2.5 20 12.4 ESE 19 26 10 14 1012.1 1010.7 0.0
29/08:00pm 27.8 22.6 3.5 21 12.3 ESE 20 26 11 14 1011.7 1010.3 0.0
29/07:30pm 28.0 23.0 3.7 21 12.4 ESE 19 24 10 13 1011.3 1009.9 0.0
29/07:00pm 29.1 23.2 3.9 20 13.0 ESE 24 35 13 19 1010.8 1009.3 0.0
29/06:30pm 30.1 24.5 5.4 21 13.1 ESE 24 33 13 18 1010.2 1008.7 0.0
29/06:00pm 31.2 24.2 4.1 18 14.2 ESE 30 43 16 23 1009.9 1008.4 0.0
29/05:30pm 33.4 26.8 4.2 16 15.5 SE 28 43 15 23 1009.3 1007.8 0.0
29/05:00pm 32.7 26.2 2.7 15 15.5 SSE 26 35 14 19 1009.4 1007.9 0.0
29/04:30pm 33.0 27.1 2.0 14 15.9 SSE 22 33 12 18 1009.3 1007.8 0.0
29/04:00pm 33.4 28.4 1.3 13 16.3 SSE 17 22 9 12 1009.6 1008.1 0.0
29/03:30pm 34.1 29.5 1.8 13 16.6 S 15 20 8 11 1009.8 1008.3 0.0
29/03:00pm 33.9 29.3 1.6 13 16.5 SW 15 20 8 11 1010.0 1008.5 0.0
29/02:30pm 34.2 29.5 0.8 12 16.9 SW 15 20 8 11 1010.2 1008.7 0.0
29/02:00pm 34.6 31.6 1.1 12 17.1 NW 6 11 3 6 1010.3 1008.8 0.0
29/01:30pm 35.8 32.4 2.0 12 17.6 NNE 9 17 5 9 1010.5 1009.0 0.0
29/01:00pm 34.9 30.8 0.1 11 17.5 S 11 20 6 11 1010.7 1009.2 0.0
29/12:30pm 35.2 31.4 1.5 12 17.3 SW 11 17 6 9 1011.1 1009.7 0.0
29/12:00pm 33.3 29.8 1.2 13 16.2 W 9 17 5 9 1011.6 1010.2 0.0
29/11:30am 32.9 29.7 0.9 13 16.1 WSW 7 15 4 8 1012.0 1010.6 0.0
29/11:00am 31.3 28.6 0.6 14 15.2 W 4 6 2 3 1012.2 1010.8 0.0
29/10:30am 30.8 26.8 0.2 14 15.0 W 11 17 6 9 1012.6 1011.1 0.0
29/10:00am 30.9 26.3 1.3 15 14.8 WNW 15 20 8 11 1012.6 1011.1 0.0
29/09:30am 31.8 27.5 1.0 14 15.4 NNE 13 19 7 10 1012.0 1010.6 0.0
29/09:00am 31.4 27.0 2.6 16 14.7 NNE 15 20 8 11 1012.0 1010.6 -
29/08:00am 25.1 20.9 1.9 22 11.2 NE 13 17 7 9 1012.4 1010.9 0.0
29/07:30am 24.7 21.8 2.8 24 10.8 ENE 7 11 4 6 1012.4 1010.9 0.0
29/07:00am 22.3 19.9 4.4 31 8.9 ESE 6 7 3 4 1012.2 1010.8 0.0
29/06:30am 19.7 18.8 9.3 51 5.6 ESE 4 4 2 2 1011.9 1010.5 0.0
29/06:00am 16.4 15.8 10.3 67 3.3 SSE 4 6 2 3 1011.6 1010.2 0.0
29/05:30am 15.6 15.5 9.5 67 3.2 CALM 0 0 0 0 1011.2 1009.8 0.0
29/05:00am 15.1 14.5 8.8 66 3.3 ESE 2 4 1 2 1010.9 1009.4 0.0
29/04:30am 16.9 16.1 9.8 63 3.8 ESE 4 6 2 3 1010.8 1009.3 0.0
29/04:00am 17.2 16.6 9.1 59 4.3 NNE 2 4 1 2 1010.6 1009.1 0.0
29/03:30am 17.9 17.1 8.2 53 5.0 NNE 2 6 1 3 1010.4 1008.9 0.0
29/03:00am 17.8 16.0 7.0 49 5.5 S 6 13 3 7 1010.6 1009.1 0.0
29/02:30am 19.4 16.1 8.1 48 5.9 SSE 15 17 8 9 1010.4 1008.9 0.0
29/02:00am 20.0 17.2 8.4 47 6.1 SSE 13 17 7 9 1010.6 1009.1 0.0
29/01:30am 20.5 16.5 8.2 45 6.5 S 19 22 10 12 1010.8 1009.3 0.0
29/01:00am 21.1 17.3 7.7 42 7.1 S 17 20 9 11 1011.1 1009.7 0.0
29/12:30am 21.7 17.9 7.5 40 7.5 S 17 20 9 11 1010.9 1009.4 0.0
29/12:00am 22.4 18.7 6.2 35 8.4 S 15 17 8 9 1011.1 1009.7 0.0
 
Date/Time
WST
Temp
°C
App
Temp
°C
Dew
Point
Rel
Hum
%
Delta-T
°C
Wind Press
QNH
hPa
Press
MSL
hPa
Rain
since 9 am
mm
Dir
 
Spd
km/h
Gust
km/h
Spd
kts
Gust
kts
28/11:30pm 22.7 18.5 5.6 33 8.7 S 17 20 9 11 1010.8 1009.3 0.0
28/11:00pm 23.4 19.4 4.9 30 9.4 S 15 17 8 9 1010.9 1009.4 0.0
28/10:30pm 23.4 19.6 1.7 24 10.3 S 11 13 6 7 1010.7 1009.2 0.0
28/10:00pm 25.8 22.9 1.2 20 11.8 E 6 7 3 4 1010.3 1008.8 0.0
28/09:30pm 28.8 24.3 2.1 18 13.3 E 15 28 8 15 1010.1 1008.6 0.0
28/09:00pm 29.8 26.3 3.7 19 13.5 ESE 11 17 6 9 1010.0 1008.5 0.0
28/08:30pm 30.8 27.6 5.3 20 13.6 SW 11 28 6 15 1009.8 1008.3 0.0
28/08:00pm 31.0 26.5 2.3 16 14.6 ENE 15 20 8 11 1008.8 1007.4 0.0
28/07:30pm 29.9 26.3 3.0 18 13.7 ENE 11 17 6 9 1008.3 1006.9 0.0
28/07:00pm 31.5 28.6 2.7 16 14.8 ENE 7 11 4 6 1008.2 1006.7 0.0
28/06:30pm 34.4 29.7 3.1 14 16.4 NE 17 24 9 13 1008.0 1006.5 0.0
28/06:00pm 35.2 30.8 2.6 13 17.1 NE 15 20 8 11 1007.7 1006.2 0.0
28/05:30pm 36.1 31.4 3.3 13 17.4 NE 17 28 9 15 1007.3 1005.8 0.0
28/05:00pm 36.4 31.8 3.6 13 17.6 NE 17 33 9 18 1007.1 1005.6 0.0
28/04:30pm 36.7 34.0 3.8 13 17.7 NNE 7 20 4 11 1007.3 1005.8 0.0
28/04:00pm 35.6 31.3 3.0 13 17.2 ENE 15 26 8 14 1007.8 1006.3 0.0
28/03:30pm 35.0 30.0 3.5 14 16.7 ENE 19 24 10 13 1008.2 1006.7 0.0
28/03:00pm 36.0 31.7 3.3 13 17.4 NE 15 26 8 14 1008.6 1007.2 0.0
28/02:30pm 36.5 31.9 3.7 13 17.6 NNE 17 28 9 15 1008.8 1007.4 0.0
28/02:00pm 35.9 31.6 3.2 13 17.4 NE 15 33 8 18 1009.0 1007.6 0.0
28/01:30pm 35.3 32.2 3.8 14 16.8 NNE 9 22 5 12 1009.5 1008.0 0.0
28/01:00pm 35.2 31.0 3.7 14 16.8 ENE 15 28 8 15 1009.8 1008.3 0.0
28/12:30pm 38.1 32.8 4.9 13 18.3 NE 22 39 12 21 1010.1 1008.6 0.0
28/12:00pm 36.9 32.4 4.0 13 17.8 NNE 17 35 9 19 1010.5 1009.0 0.0
28/11:30am 36.6 31.6 3.7 13 17.6 NE 19 30 10 16 1010.9 1009.4 0.0
28/11:00am 35.4 30.1 2.8 13 17.1 NNE 20 39 11 21 1011.3 1009.9 0.0
28/10:30am 34.2 28.5 2.9 14 16.3 NNE 22 35 12 19 1011.5 1010.1 0.0
28/10:00am 33.8 27.7 2.6 14 16.2 NNE 24 37 13 20 1011.7 1010.3 0.0
28/09:30am 32.1 26.1 3.1 16 15.0 NNE 24 32 13 17 1011.8 1010.4 0.0
28/09:00am 31.6 26.0 3.6 17 14.6 NNE 22 32 12 17 1012.0 1010.6 0.0
28/08:30am 29.5 23.0 2.7 18 13.6 NNE 26 32 14 17 1012.1 1010.7 0.0
28/08:00am 28.5 23.3 2.7 19 13.0 NNE 19 26 10 14 1012.4 1010.9 0.0
28/07:30am 26.6 21.4 3.8 23 11.5 NE 20 28 11 15 1012.5 1011.0 0.0
28/07:00am 24.4 20.7 4.7 28 10.0 NE 13 17 7 9 1012.5 1011.0 0.0
28/06:30am 21.7 19.5 6.4 37 7.9 ENE 7 9 4 5 1012.2 1010.8 0.0
28/06:00am 19.5 17.8 8.2 48 5.9 E 7 11 4 6 1012.0 1010.6 0.0
28/05:30am 17.0 15.8 7.9 55 4.7 E 4 4 2 2 1011.8 1010.4 0.0
28/05:00am 18.0 17.7 8.6 54 4.9 CALM 0 0 0 0 1011.3 1009.9 0.0
28/04:30am 17.3 16.6 8.7 57 4.5 NE 2 4 1 2 1011.1 1009.7 0.0
28/04:00am 17.9 16.5 9.0 56 4.7 ENE 6 6 3 3 1010.9 1009.4 0.0
28/03:30am 18.3 16.3 8.8 54 5.0 ENE 9 9 5 5 1010.6 1009.1 0.0
28/03:00am 18.7 16.8 8.9 53 5.2 ENE 9 11 5 6 1010.5 1009.0 0.0
28/02:30am 19.3 17.2 9.8 54 5.1 E 11 13 6 7 1010.5 1009.0 0.0
28/02:00am 19.6 17.6 10.3 55 5.1 E 11 15 6 8 1010.5 1009.0 0.0
28/01:30am 19.8 18.0 10.8 56 5.0 ESE 11 13 6 7 1010.5 1009.0 0.0
28/01:00am 20.5 19.1 10.9 54 5.3 E 9 13 5 7 1010.7 1009.2 0.0
28/12:30am 21.0 18.5 11.1 53 5.5 E 15 20 8 11 1010.9 1009.4 0.0
28/12:00am 20.9 18.2 10.4 51 5.8 ESE 15 19 8 10 1011.1 1009.7 0.0
 
Date/Time
WST
Temp
°C
App
Temp
°C
Dew
Point
Rel
Hum
%
Delta-T
°C
Wind Press
QNH
hPa
Press
MSL
hPa
Rain
since 9 am
mm
Dir
 
Spd
km/h
Gust
km/h
Spd
kts
Gust
kts
27/11:30pm 20.8 18.4 10.0 50 5.9 E 13 17 7 9 1011.2 1009.8 0.0
27/11:00pm 21.3 18.9 10.2 49 6.1 ESE 13 19 7 10 1011.2 1009.8 0.0
27/10:30pm 21.6 18.8 10.1 48 6.3 ESE 15 22 8 12 1011.2 1009.8 0.0
27/10:00pm 22.2 18.6 10.0 46 6.7 ESE 19 28 10 15 1011.2 1009.8 0.0
27/09:30pm 23.0 18.8 9.8 43 7.3 ESE 22 32 12 17 1011.2 1009.8 0.0
27/09:00pm 23.8 18.9 9.8 41 7.8 ESE 26 33 14 18 1011.1 1009.7 0.0
27/08:30pm 24.8 20.1 9.1 37 8.6 ESE 24 30 13 16 1011.1 1009.7 0.0
27/08:00pm 25.7 21.3 7.3 31 9.9 ESE 20 30 11 16 1010.8 1009.3 0.0
27/07:30pm 27.0 22.2 7.5 29 10.6 SE 22 32 12 17 1010.5 1009.0 0.0
27/07:00pm 28.5 22.5 7.1 26 11.6 ESE 28 37 15 20 1010.0 1008.5 0.0
27/06:30pm 30.7 24.7 7.2 23 12.9 ESE 28 41 15 22 1009.5 1008.0 0.0
27/06:00pm 33.5 28.7 0.2 12 16.6 ESE 15 20 8 11 1009.3 1007.8 0.0
27/05:30pm 33.8 30.2 0.5 12 16.7 NE 9 15 5 8 1009.0 1007.6 0.0
27/05:00pm 34.0 29.3 0.6 12 16.8 ESE 15 22 8 12 1008.9 1007.5 0.0
27/04:30pm 34.1 29.8 0.7 12 16.8 SSE 13 22 7 12 1009.0 1007.6 0.0
27/04:00pm 35.1 32.0 1.5 12 17.3 SSE 7 19 4 10 1009.2 1007.7 0.0
27/03:30pm 34.9 30.4 2.4 13 16.9 NNW 15 24 8 13 1009.3 1007.8 0.0
27/03:00pm 34.4 29.9 2.0 13 16.7 SE 15 26 8 14 1009.5 1008.0 0.0
27/02:30pm 33.1 28.8 1.0 13 16.1 ENE 13 22 7 12 1009.7 1008.2 0.0
27/02:00pm 35.2 30.8 2.6 13 17.1 ESE 15 20 8 11 1009.9 1008.4 0.0
27/01:30pm 33.4 30.1 2.3 14 16.0 SE 9 19 5 10 1010.3 1008.8 0.0
27/01:00pm 33.5 29.8 2.4 14 16.1 NE 11 19 6 10 1010.7 1009.2 0.0
27/12:30pm 33.4 30.2 3.3 15 15.8 N 9 20 5 11 1011.0 1009.5 0.0
27/12:00pm 33.2 29.0 4.0 16 15.5 NE 15 22 8 12 1011.2 1009.8 0.0
27/11:30am 31.9 27.8 4.6 18 14.5 ENE 15 26 8 14 1011.7 1010.3 0.0
27/11:00am 31.2 26.6 5.6 20 13.7 ENE 19 32 10 17 1012.4 1010.9 0.0
27/10:30am 30.1 25.7 6.7 23 12.7 NE 19 28 10 15 1012.6 1011.1 0.0
27/10:00am 29.4 25.7 7.9 26 11.9 NE 17 28 9 15 1012.9 1011.4 0.0
27/09:30am 27.4 23.5 7.3 28 10.9 ENE 17 24 9 13 1013.1 1011.6 0.0
27/09:00am 26.1 22.3 7.7 31 10.0 NE 17 24 9 13 1013.3 1011.8 0.0
27/08:30am 24.1 19.9 8.1 36 8.6 ENE 20 26 11 14 1013.5 1012.0 0.0
27/08:00am 22.1 17.4 7.9 40 7.5 NE 22 28 12 15 1013.5 1012.0 0.0
27/07:30am 20.2 16.3 9.5 50 5.8 ENE 20 26 11 14 1013.4 1011.9 0.0
27/07:00am 18.1 14.2 9.5 57 4.6 ENE 20 24 11 13 1013.4 1011.9 0.0
27/06:30am 16.6 14.2 10.0 65 3.5 E 13 19 7 10 1013.3 1011.8 0.0
27/06:00am 14.2 12.9 10.0 76 2.2 ESE 7 9 4 5 1013.3 1011.8 0.0
27/05:30am 12.2 10.6 8.9 80 1.7 ESE 7 9 4 5 1013.4 1011.9 0.0
27/05:00am 12.3 10.3 8.8 79 1.8 ESE 9 11 5 6 1013.2 1011.7 0.0
27/04:30am 12.7 10.8 9.2 79 1.8 ESE 9 11 5 6 1013.0 1011.5 0.0
27/04:00am 13.1 10.7 9.9 81 1.7 SE 13 15 7 8 1012.7 1011.2 0.0
27/03:30am 13.0 11.3 9.8 81 1.7 ESE 9 9 5 5 1012.7 1011.2 0.0
27/03:00am 13.6 11.7 10.4 81 1.7 ESE 11 15 6 8 1012.7 1011.2 0.0
27/02:30am 13.6 12.1 10.4 81 1.7 ESE 9 13 5 7 1012.8 1011.3 0.0
27/02:00am 13.9 11.7 10.7 81 1.7 ESE 13 17 7 9 1013.0 1011.5 0.0
27/01:30am 14.1 12.0 11.1 82 1.6 ESE 13 17 7 9 1013.2 1011.7 0.0
27/01:00am 14.1 11.9 10.9 81 1.7 ESE 13 19 7 10 1013.5 1012.0 0.0
27/12:30am 14.4 12.3 11.2 81 1.7 ESE 13 19 7 10 1013.7 1012.2 0.0
27/12:00am 14.7 11.8 11.1 79 1.9 ESE 17 24 9 13 1013.7 1012.2 0.0
 
Date/Time
WST
Temp
°C
App
Temp
°C
Dew
Point
Rel
Hum
%
Delta-T
°C
Wind Press
QNH
hPa
Press
MSL
hPa
Rain
since 9 am
mm
Dir
 
Spd
km/h
Gust
km/h
Spd
kts
Gust
kts
26/11:30pm 14.9 12.1 11.3 79 2.0 ESE 17 20 9 11 1014.1 1012.7 0.0
26/11:00pm 15.3 13.2 11.3 77 2.2 ESE 13 19 7 10 1014.3 1012.9 0.0
26/10:30pm 15.6 13.5 11.0 74 2.5 ESE 13 28 7 15 1014.3 1012.9 0.0

Other Formats:

Comma delimited format used in spreadsheet applications
http://www.bom.gov.au/fwo/IDW60801/IDW60801.94628.axf

JavaScript Object Notation format (JSON) in row-major order
http://www.bom.gov.au/fwo/IDW60801/IDW60801.94628.json